sensor_id;sensor_type;location;lat;lon;timestamp;P1;durP1;ratioP1;P2;durP2;ratioP2
85829;SDS011;76277;49.212;16.680;2024-02-14T00:02:29;13.00;;;11.60;;
85829;SDS011;76277;49.212;16.680;2024-02-14T00:05:14;16.60;;;14.70;;
85829;SDS011;76277;49.212;16.680;2024-02-14T00:07:58;16.60;;;14.70;;
85829;SDS011;76277;49.212;16.680;2024-02-14T00:10:43;16.60;;;14.70;;
85829;SDS011;76277;49.212;16.680;2024-02-14T00:13:28;16.60;;;14.70;;
85829;SDS011;76277;49.212;16.680;2024-02-14T00:16:13;16.60;;;14.70;;
85829;SDS011;76277;49.212;16.680;2024-02-14T00:18:57;15.10;;;13.40;;
85829;SDS011;76277;49.212;16.680;2024-02-14T00:21:42;15.10;;;13.40;;
85829;SDS011;76277;49.212;16.680;2024-02-14T00:24:26;15.10;;;13.40;;
85829;SDS011;76277;49.212;16.680;2024-02-14T00:27:11;15.10;;;13.40;;
85829;SDS011;76277;49.212;16.680;2024-02-14T00:29:56;15.10;;;13.40;;
85829;SDS011;76277;49.212;16.680;2024-02-14T00:32:40;15.10;;;13.40;;
85829;SDS011;76277;49.212;16.680;2024-02-14T00:35:25;15.50;;;13.80;;
85829;SDS011;76277;49.212;16.680;2024-02-14T00:38:10;15.50;;;13.80;;
85829;SDS011;76277;49.212;16.680;2024-02-14T00:40:55;15.50;;;13.80;;
85829;SDS011;76277;49.212;16.680;2024-02-14T00:43:39;15.50;;;13.80;;
85829;SDS011;76277;49.212;16.680;2024-02-14T00:46:24;15.50;;;13.80;;
85829;SDS011;76277;49.212;16.680;2024-02-14T00:49:09;16.00;;;14.20;;
85829;SDS011;76277;49.212;16.680;2024-02-14T00:51:53;16.00;;;14.20;;
85829;SDS011;76277;49.212;16.680;2024-02-14T00:54:38;16.00;;;14.20;;
85829;SDS011;76277;49.212;16.680;2024-02-14T00:57:23;16.00;;;14.20;;
85829;SDS011;76277;49.212;16.680;2024-02-14T01:00:07;16.00;;;14.20;;
85829;SDS011;76277;49.212;16.680;2024-02-14T01:02:52;16.00;;;14.20;;
85829;SDS011;76277;49.212;16.680;2024-02-14T01:05:36;17.40;;;15.50;;
85829;SDS011;76277;49.212;16.680;2024-02-14T01:08:21;17.40;;;15.50;;
85829;SDS011;76277;49.212;16.680;2024-02-14T01:11:06;17.40;;;15.50;;
85829;SDS011;76277;49.212;16.680;2024-02-14T01:13:50;17.40;;;15.50;;
85829;SDS011;76277;49.212;16.680;2024-02-14T01:16:42;17.40;;;15.50;;
85829;SDS011;76277;49.212;16.680;2024-02-14T01:19:20;15.80;;;14.10;;
85829;SDS011;76277;49.212;16.680;2024-02-14T01:22:05;15.80;;;14.10;;
85829;SDS011;76277;49.212;16.680;2024-02-14T01:24:49;15.80;;;14.10;;
85829;SDS011;76277;49.212;16.680;2024-02-14T01:27:34;15.80;;;14.10;;
85829;SDS011;76277;49.212;16.680;2024-02-14T01:30:19;15.80;;;14.10;;
85829;SDS011;76277;49.212;16.680;2024-02-14T01:33:03;15.80;;;14.10;;
85829;SDS011;76277;49.212;16.680;2024-02-14T01:38:32;14.20;;;12.60;;
85829;SDS011;76277;49.212;16.680;2024-02-14T01:41:17;14.20;;;12.60;;
85829;SDS011;76277;49.212;16.680;2024-02-14T01:44:02;14.20;;;12.60;;
85829;SDS011;76277;49.212;16.680;2024-02-14T01:46:46;14.20;;;12.60;;
85829;SDS011;76277;49.212;16.680;2024-02-14T01:49:31;14.50;;;12.90;;
85829;SDS011;76277;49.212;16.680;2024-02-14T01:52:16;14.50;;;12.90;;
85829;SDS011;76277;49.212;16.680;2024-02-14T01:55:02;14.50;;;12.90;;
85829;SDS011;76277;49.212;16.680;2024-02-14T01:57:45;14.50;;;12.90;;
85829;SDS011;76277;49.212;16.680;2024-02-14T02:00:30;14.50;;;12.90;;
85829;SDS011;76277;49.212;16.680;2024-02-14T02:03:14;14.50;;;12.90;;
85829;SDS011;76277;49.212;16.680;2024-02-14T02:05:59;17.80;;;15.80;;
85829;SDS011;76277;49.212;16.680;2024-02-14T02:08:44;17.80;;;15.80;;
85829;SDS011;76277;49.212;16.680;2024-02-14T02:11:29;17.80;;;15.80;;
85829;SDS011;76277;49.212;16.680;2024-02-14T02:14:13;17.80;;;15.80;;
85829;SDS011;76277;49.212;16.680;2024-02-14T02:16:58;17.80;;;15.80;;
85829;SDS011;76277;49.212;16.680;2024-02-14T02:19:42;14.40;;;12.80;;
85829;SDS011;76277;49.212;16.680;2024-02-14T02:22:27;14.40;;;12.80;;
85829;SDS011;76277;49.212;16.680;2024-02-14T02:25:12;14.40;;;12.80;;
85829;SDS011;76277;49.212;16.680;2024-02-14T02:27:56;14.40;;;12.80;;
85829;SDS011;76277;49.212;16.680;2024-02-14T02:30:42;14.40;;;12.80;;
85829;SDS011;76277;49.212;16.680;2024-02-14T02:33:26;14.40;;;12.80;;
85829;SDS011;76277;49.212;16.680;2024-02-14T02:36:11;12.50;;;11.10;;
85829;SDS011;76277;49.212;16.680;2024-02-14T02:38:55;12.50;;;11.10;;
85829;SDS011;76277;49.212;16.680;2024-02-14T02:41:40;12.50;;;11.10;;
85829;SDS011;76277;49.212;16.680;2024-02-14T02:44:24;12.50;;;11.10;;
85829;SDS011;76277;49.212;16.680;2024-02-14T02:47:09;12.50;;;11.10;;
85829;SDS011;76277;49.212;16.680;2024-02-14T02:49:54;15.90;;;14.10;;
85829;SDS011;76277;49.212;16.680;2024-02-14T02:52:39;15.90;;;14.10;;
85829;SDS011;76277;49.212;16.680;2024-02-14T02:55:23;15.90;;;14.10;;
85829;SDS011;76277;49.212;16.680;2024-02-14T02:58:08;15.90;;;14.10;;
85829;SDS011;76277;49.212;16.680;2024-02-14T03:00:52;15.90;;;14.10;;
85829;SDS011;76277;49.212;16.680;2024-02-14T03:03:37;15.90;;;14.10;;
85829;SDS011;76277;49.212;16.680;2024-02-14T03:06:22;19.00;;;16.90;;
85829;SDS011;76277;49.212;16.680;2024-02-14T03:09:06;19.00;;;16.90;;
85829;SDS011;76277;49.212;16.680;2024-02-14T03:11:51;19.00;;;16.90;;
85829;SDS011;76277;49.212;16.680;2024-02-14T03:14:36;19.00;;;16.90;;
85829;SDS011;76277;49.212;16.680;2024-02-14T03:17:21;19.00;;;16.90;;
85829;SDS011;76277;49.212;16.680;2024-02-14T03:20:06;20.70;;;18.40;;
85829;SDS011;76277;49.212;16.680;2024-02-14T03:22:50;20.70;;;18.40;;
85829;SDS011;76277;49.212;16.680;2024-02-14T03:25:34;20.70;;;18.40;;
85829;SDS011;76277;49.212;16.680;2024-02-14T03:28:19;20.70;;;18.40;;
85829;SDS011;76277;49.212;16.680;2024-02-14T03:31:04;20.70;;;18.40;;
85829;SDS011;76277;49.212;16.680;2024-02-14T03:33:48;20.70;;;18.40;;
85829;SDS011;76277;49.212;16.680;2024-02-14T03:36:33;21.10;;;18.70;;
85829;SDS011;76277;49.212;16.680;2024-02-14T03:39:18;21.10;;;18.70;;
85829;SDS011;76277;49.212;16.680;2024-02-14T03:42:02;21.10;;;18.70;;
85829;SDS011;76277;49.212;16.680;2024-02-14T03:44:48;21.10;;;18.70;;
85829;SDS011;76277;49.212;16.680;2024-02-14T03:47:32;21.10;;;18.70;;
85829;SDS011;76277;49.212;16.680;2024-02-14T03:50:16;15.60;;;13.80;;
85829;SDS011;76277;49.212;16.680;2024-02-14T03:53:01;15.60;;;13.80;;
85829;SDS011;76277;49.212;16.680;2024-02-14T03:55:46;15.60;;;13.80;;
85829;SDS011;76277;49.212;16.680;2024-02-14T03:58:30;15.60;;;13.80;;
85829;SDS011;76277;49.212;16.680;2024-02-14T04:01:15;15.60;;;13.80;;
85829;SDS011;76277;49.212;16.680;2024-02-14T04:03:59;15.60;;;13.80;;
85829;SDS011;76277;49.212;16.680;2024-02-14T04:06:44;19.80;;;17.60;;
85829;SDS011;76277;49.212;16.680;2024-02-14T04:09:29;19.80;;;17.60;;
85829;SDS011;76277;49.212;16.680;2024-02-14T04:12:14;19.80;;;17.60;;
85829;SDS011;76277;49.212;16.680;2024-02-14T04:14:58;19.80;;;17.60;;
85829;SDS011;76277;49.212;16.680;2024-02-14T04:17:43;19.80;;;17.60;;
85829;SDS011;76277;49.212;16.680;2024-02-14T04:20:28;21.50;;;14.40;;
85829;SDS011;76277;49.212;16.680;2024-02-14T04:23:13;21.50;;;14.40;;
85829;SDS011;76277;49.212;16.680;2024-02-14T04:25:57;21.50;;;14.40;;
85829;SDS011;76277;49.212;16.680;2024-02-14T04:28:42;21.50;;;14.40;;
85829;SDS011;76277;49.212;16.680;2024-02-14T04:31:26;21.50;;;14.40;;
85829;SDS011;76277;49.212;16.680;2024-02-14T04:34:11;21.50;;;14.40;;
85829;SDS011;76277;49.212;16.680;2024-02-14T04:36:55;16.20;;;14.40;;
85829;SDS011;76277;49.212;16.680;2024-02-14T04:39:41;16.20;;;14.40;;
85829;SDS011;76277;49.212;16.680;2024-02-14T04:42:25;16.20;;;14.40;;
85829;SDS011;76277;49.212;16.680;2024-02-14T04:45:10;16.20;;;14.40;;
85829;SDS011;76277;49.212;16.680;2024-02-14T04:47:54;16.20;;;14.40;;
85829;SDS011;76277;49.212;16.680;2024-02-14T04:50:39;16.10;;;14.30;;
85829;SDS011;76277;49.212;16.680;2024-02-14T04:53:24;16.10;;;14.30;;
85829;SDS011;76277;49.212;16.680;2024-02-14T04:56:08;16.10;;;14.30;;
85829;SDS011;76277;49.212;16.680;2024-02-14T04:58:53;16.10;;;14.30;;
85829;SDS011;76277;49.212;16.680;2024-02-14T05:01:38;16.10;;;14.30;;
85829;SDS011;76277;49.212;16.680;2024-02-14T05:04:22;16.10;;;14.30;;
85829;SDS011;76277;49.212;16.680;2024-02-14T05:07:07;16.50;;;14.70;;
85829;SDS011;76277;49.212;16.680;2024-02-14T05:09:51;16.50;;;14.70;;
85829;SDS011;76277;49.212;16.680;2024-02-14T05:12:36;16.50;;;14.70;;
85829;SDS011;76277;49.212;16.680;2024-02-14T05:15:21;16.50;;;14.70;;
85829;SDS011;76277;49.212;16.680;2024-02-14T05:18:07;16.50;;;14.70;;
85829;SDS011;76277;49.212;16.680;2024-02-14T05:20:50;16.70;;;14.80;;
85829;SDS011;76277;49.212;16.680;2024-02-14T05:23:35;16.70;;;14.80;;
85829;SDS011;76277;49.212;16.680;2024-02-14T05:26:19;16.70;;;14.80;;
85829;SDS011;76277;49.212;16.680;2024-02-14T05:29:04;16.70;;;14.80;;
85829;SDS011;76277;49.212;16.680;2024-02-14T05:31:49;16.70;;;14.80;;
85829;SDS011;76277;49.212;16.680;2024-02-14T05:34:34;16.70;;;14.80;;
85829;SDS011;76277;49.212;16.680;2024-02-14T05:37:18;18.70;;;16.60;;
85829;SDS011;76277;49.212;16.680;2024-02-14T05:40:03;18.70;;;16.60;;
85829;SDS011;76277;49.212;16.680;2024-02-14T05:42:47;18.70;;;16.60;;
85829;SDS011;76277;49.212;16.680;2024-02-14T05:45:33;18.70;;;16.60;;
85829;SDS011;76277;49.212;16.680;2024-02-14T05:48:17;18.70;;;16.60;;
85829;SDS011;76277;49.212;16.680;2024-02-14T05:51:01;21.80;;;19.30;;
85829;SDS011;76277;49.212;16.680;2024-02-14T05:53:46;21.80;;;19.30;;
85829;SDS011;76277;49.212;16.680;2024-02-14T05:56:31;21.80;;;19.30;;
85829;SDS011;76277;49.212;16.680;2024-02-14T05:59:15;21.80;;;19.30;;
85829;SDS011;76277;49.212;16.680;2024-02-14T06:02:00;21.80;;;19.30;;
85829;SDS011;76277;49.212;16.680;2024-02-14T06:04:45;12.70;;;11.30;;
85829;SDS011;76277;49.212;16.680;2024-02-14T06:07:29;12.70;;;11.30;;
85829;SDS011;76277;49.212;16.680;2024-02-14T06:10:14;12.70;;;11.30;;
85829;SDS011;76277;49.212;16.680;2024-02-14T06:12:59;12.70;;;11.30;;
85829;SDS011;76277;49.212;16.680;2024-02-14T06:15:44;12.70;;;11.30;;
85829;SDS011;76277;49.212;16.680;2024-02-14T06:18:28;12.70;;;11.30;;
85829;SDS011;76277;49.212;16.680;2024-02-14T06:21:13;15.10;;;13.50;;
85829;SDS011;76277;49.212;16.680;2024-02-14T06:23:58;15.10;;;13.50;;
85829;SDS011;76277;49.212;16.680;2024-02-14T06:26:42;15.10;;;13.50;;
85829;SDS011;76277;49.212;16.680;2024-02-14T06:29:27;15.10;;;13.50;;
85829;SDS011;76277;49.212;16.680;2024-02-14T06:32:13;15.10;;;13.50;;
85829;SDS011;76277;49.212;16.680;2024-02-14T06:34:56;12.80;;;11.40;;
85829;SDS011;76277;49.212;16.680;2024-02-14T06:37:41;12.80;;;11.40;;
85829;SDS011;76277;49.212;16.680;2024-02-14T06:40:26;12.80;;;11.40;;
85829;SDS011;76277;49.212;16.680;2024-02-14T06:43:10;12.80;;;11.40;;
85829;SDS011;76277;49.212;16.680;2024-02-14T06:45:55;12.80;;;11.40;;
85829;SDS011;76277;49.212;16.680;2024-02-14T06:48:40;12.80;;;11.40;;
85829;SDS011;76277;49.212;16.680;2024-02-14T06:51:24;14.20;;;12.60;;
85829;SDS011;76277;49.212;16.680;2024-02-14T06:54:09;14.20;;;12.60;;
85829;SDS011;76277;49.212;16.680;2024-02-14T06:56:54;14.20;;;12.60;;
85829;SDS011;76277;49.212;16.680;2024-02-14T06:59:38;14.20;;;12.60;;
85829;SDS011;76277;49.212;16.680;2024-02-14T07:02:23;14.20;;;12.60;;
85829;SDS011;76277;49.212;16.680;2024-02-14T07:07:52;15.80;;;14.00;;
85829;SDS011;76277;49.212;16.680;2024-02-14T07:10:37;15.80;;;14.00;;
85829;SDS011;76277;49.212;16.680;2024-02-14T07:13:21;15.80;;;14.00;;
85829;SDS011;76277;49.212;16.680;2024-02-14T07:16:06;15.80;;;14.00;;
85829;SDS011;76277;49.212;16.680;2024-02-14T07:18:52;15.80;;;14.00;;
85829;SDS011;76277;49.212;16.680;2024-02-14T07:21:35;31.00;;;27.50;;
85829;SDS011;76277;49.212;16.680;2024-02-14T07:24:20;31.00;;;27.50;;
85829;SDS011;76277;49.212;16.680;2024-02-14T07:27:05;31.00;;;27.50;;
85829;SDS011;76277;49.212;16.680;2024-02-14T07:29:49;31.00;;;27.50;;
85829;SDS011;76277;49.212;16.680;2024-02-14T07:32:34;31.00;;;27.50;;
85829;SDS011;76277;49.212;16.680;2024-02-14T07:35:19;19.80;;;17.60;;
85829;SDS011;76277;49.212;16.680;2024-02-14T07:38:04;19.80;;;17.60;;
85829;SDS011;76277;49.212;16.680;2024-02-14T07:40:48;19.80;;;17.60;;
85829;SDS011;76277;49.212;16.680;2024-02-14T07:43:33;19.80;;;17.60;;
85829;SDS011;76277;49.212;16.680;2024-02-14T07:46:18;19.80;;;17.60;;
85829;SDS011;76277;49.212;16.680;2024-02-14T07:49:02;19.80;;;17.60;;
85829;SDS011;76277;49.212;16.680;2024-02-14T07:51:47;17.80;;;15.80;;
85829;SDS011;76277;49.212;16.680;2024-02-14T07:54:32;17.80;;;15.80;;
85829;SDS011;76277;49.212;16.680;2024-02-14T08:00:01;17.80;;;15.80;;
85829;SDS011;76277;49.212;16.680;2024-02-14T08:02:45;17.80;;;15.80;;
85829;SDS011;76277;49.212;16.680;2024-02-14T08:05:31;22.30;;;19.90;;
85829;SDS011;76277;49.212;16.680;2024-02-14T08:08:15;22.30;;;19.90;;
85829;SDS011;76277;49.212;16.680;2024-02-14T08:10:59;22.30;;;19.90;;
85829;SDS011;76277;49.212;16.680;2024-02-14T08:13:44;22.30;;;19.90;;
85829;SDS011;76277;49.212;16.680;2024-02-14T08:16:29;22.30;;;19.90;;
85829;SDS011;76277;49.212;16.680;2024-02-14T08:19:13;22.30;;;19.90;;
85829;SDS011;76277;49.212;16.680;2024-02-14T08:21:58;26.90;;;23.90;;
85829;SDS011;76277;49.212;16.680;2024-02-14T08:24:43;26.90;;;23.90;;
85829;SDS011;76277;49.212;16.680;2024-02-14T08:27:28;26.90;;;23.90;;
85829;SDS011;76277;49.212;16.680;2024-02-14T08:30:12;26.90;;;23.90;;
85829;SDS011;76277;49.212;16.680;2024-02-14T08:32:57;26.90;;;23.90;;
85829;SDS011;76277;49.212;16.680;2024-02-14T08:35:41;28.70;;;25.50;;
85829;SDS011;76277;49.212;16.680;2024-02-14T08:38:26;28.70;;;25.50;;
85829;SDS011;76277;49.212;16.680;2024-02-14T08:41:12;28.70;;;25.50;;
85829;SDS011;76277;49.212;16.680;2024-02-14T08:43:55;28.70;;;25.50;;
85829;SDS011;76277;49.212;16.680;2024-02-14T08:46:40;28.70;;;25.50;;
85829;SDS011;76277;49.212;16.680;2024-02-14T08:49:25;28.70;;;25.50;;
85829;SDS011;76277;49.212;16.680;2024-02-14T08:52:09;30.10;;;26.80;;
85829;SDS011;76277;49.212;16.680;2024-02-14T08:54:54;30.10;;;26.80;;
85829;SDS011;76277;49.212;16.680;2024-02-14T08:57:39;30.10;;;26.80;;
85829;SDS011;76277;49.212;16.680;2024-02-14T09:00:23;30.10;;;26.80;;
85829;SDS011;76277;49.212;16.680;2024-02-14T09:03:08;30.10;;;26.80;;
85829;SDS011;76277;49.212;16.680;2024-02-14T09:05:53;30.50;;;27.10;;
85829;SDS011;76277;49.212;16.680;2024-02-14T09:08:37;30.50;;;27.10;;
85829;SDS011;76277;49.212;16.680;2024-02-14T09:11:22;30.50;;;27.10;;
85829;SDS011;76277;49.212;16.680;2024-02-14T09:14:07;30.50;;;27.10;;
85829;SDS011;76277;49.212;16.680;2024-02-14T09:16:51;30.50;;;27.10;;
85829;SDS011;76277;49.212;16.680;2024-02-14T09:19:36;30.50;;;27.10;;
85829;SDS011;76277;49.212;16.680;2024-02-14T09:22:21;23.90;;;21.20;;
85829;SDS011;76277;49.212;16.680;2024-02-14T09:25:06;23.90;;;21.20;;
85829;SDS011;76277;49.212;16.680;2024-02-14T09:27:50;23.90;;;21.20;;
85829;SDS011;76277;49.212;16.680;2024-02-14T09:30:35;23.90;;;21.20;;
85829;SDS011;76277;49.212;16.680;2024-02-14T09:33:19;23.90;;;21.20;;
85829;SDS011;76277;49.212;16.680;2024-02-14T09:36:04;27.70;;;24.60;;
85829;SDS011;76277;49.212;16.680;2024-02-14T09:38:50;27.70;;;24.60;;
85829;SDS011;76277;49.212;16.680;2024-02-14T09:41:37;27.70;;;24.60;;
85829;SDS011;76277;49.212;16.680;2024-02-14T09:44:18;27.70;;;24.60;;
85829;SDS011;76277;49.212;16.680;2024-02-14T09:47:03;27.70;;;24.60;;
85829;SDS011;76277;49.212;16.680;2024-02-14T09:49:49;27.70;;;24.60;;
85829;SDS011;76277;49.212;16.680;2024-02-14T09:52:33;26.40;;;23.50;;
85829;SDS011;76277;49.212;16.680;2024-02-14T09:55:17;26.40;;;23.50;;
85829;SDS011;76277;49.212;16.680;2024-02-14T09:58:02;26.40;;;23.50;;
85829;SDS011;76277;49.212;16.680;2024-02-14T10:00:46;26.40;;;23.50;;
85829;SDS011;76277;49.212;16.680;2024-02-14T10:03:31;26.40;;;23.50;;
85829;SDS011;76277;49.212;16.680;2024-02-14T10:06:15;31.40;;;27.90;;
85829;SDS011;76277;49.212;16.680;2024-02-14T10:09:00;31.40;;;27.90;;
85829;SDS011;76277;49.212;16.680;2024-02-14T10:11:45;31.40;;;27.90;;
85829;SDS011;76277;49.212;16.680;2024-02-14T10:14:29;31.40;;;27.90;;
85829;SDS011;76277;49.212;16.680;2024-02-14T10:17:17;31.40;;;27.90;;
85829;SDS011;76277;49.212;16.680;2024-02-14T10:20:01;31.40;;;27.90;;
85829;SDS011;76277;49.212;16.680;2024-02-14T10:22:43;24.70;;;21.90;;
85829;SDS011;76277;49.212;16.680;2024-02-14T10:25:28;24.70;;;21.90;;
85829;SDS011;76277;49.212;16.680;2024-02-14T10:28:12;24.70;;;21.90;;
85829;SDS011;76277;49.212;16.680;2024-02-14T10:30:57;24.70;;;21.90;;
85829;SDS011;76277;49.212;16.680;2024-02-14T10:33:42;24.70;;;21.90;;
85829;SDS011;76277;49.212;16.680;2024-02-14T10:36:27;20.70;;;18.40;;
85829;SDS011;76277;49.212;16.680;2024-02-14T10:39:12;20.70;;;18.40;;
85829;SDS011;76277;49.212;16.680;2024-02-14T10:41:56;20.70;;;18.40;;
85829;SDS011;76277;49.212;16.680;2024-02-14T10:44:41;20.70;;;18.40;;
85829;SDS011;76277;49.212;16.680;2024-02-14T10:47:30;20.70;;;18.40;;
85829;SDS011;76277;49.212;16.680;2024-02-14T10:50:13;20.70;;;18.40;;
85829;SDS011;76277;49.212;16.680;2024-02-14T10:52:57;21.30;;;19.00;;
85829;SDS011;76277;49.212;16.680;2024-02-14T10:55:40;21.30;;;19.00;;
85829;SDS011;76277;49.212;16.680;2024-02-14T10:58:24;21.30;;;19.00;;
85829;SDS011;76277;49.212;16.680;2024-02-14T11:01:08;21.30;;;19.00;;
85829;SDS011;76277;49.212;16.680;2024-02-14T11:03:53;21.30;;;19.00;;
85829;SDS011;76277;49.212;16.680;2024-02-14T11:06:44;19.70;;;17.50;;
85829;SDS011;76277;49.212;16.680;2024-02-14T11:09:31;19.70;;;17.50;;
85829;SDS011;76277;49.212;16.680;2024-02-14T11:12:08;19.70;;;17.50;;
85829;SDS011;76277;49.212;16.680;2024-02-14T11:14:57;19.70;;;17.50;;
85829;SDS011;76277;49.212;16.680;2024-02-14T11:17:37;19.70;;;17.50;;
85829;SDS011;76277;49.212;16.680;2024-02-14T11:20:31;19.70;;;17.50;;
85829;SDS011;76277;49.212;16.680;2024-02-14T11:23:07;20.90;;;18.60;;
85829;SDS011;76277;49.212;16.680;2024-02-14T11:25:50;20.90;;;18.60;;
85829;SDS011;76277;49.212;16.680;2024-02-14T11:28:37;20.90;;;18.60;;
85829;SDS011;76277;49.212;16.680;2024-02-14T11:31:20;20.90;;;18.60;;
85829;SDS011;76277;49.212;16.680;2024-02-14T11:34:05;20.90;;;18.60;;
85829;SDS011;76277;49.212;16.680;2024-02-14T11:36:51;14.20;;;12.60;;
85829;SDS011;76277;49.212;16.680;2024-02-14T11:39:34;14.20;;;12.60;;
85829;SDS011;76277;49.212;16.680;2024-02-14T11:42:21;14.20;;;12.60;;
85829;SDS011;76277;49.212;16.680;2024-02-14T11:45:05;14.20;;;12.60;;
85829;SDS011;76277;49.212;16.680;2024-02-14T11:47:48;14.20;;;12.60;;
85829;SDS011;76277;49.212;16.680;2024-02-14T11:50:33;14.20;;;12.60;;
85829;SDS011;76277;49.212;16.680;2024-02-14T11:53:18;14.30;;;12.70;;
85829;SDS011;76277;49.212;16.680;2024-02-14T11:56:02;14.30;;;12.70;;
85829;SDS011;76277;49.212;16.680;2024-02-14T11:58:47;14.30;;;12.70;;
85829;SDS011;76277;49.212;16.680;2024-02-14T12:01:32;14.30;;;12.70;;
85829;SDS011;76277;49.212;16.680;2024-02-14T12:04:17;14.30;;;12.70;;
85829;SDS011;76277;49.212;16.680;2024-02-14T12:07:01;16.80;;;14.90;;
85829;SDS011;76277;49.212;16.680;2024-02-14T12:09:45;16.80;;;14.90;;
85829;SDS011;76277;49.212;16.680;2024-02-14T12:12:30;16.80;;;14.90;;
85829;SDS011;76277;49.212;16.680;2024-02-14T12:15:15;16.80;;;14.90;;
85829;SDS011;76277;49.212;16.680;2024-02-14T12:18:00;16.80;;;14.90;;
85829;SDS011;76277;49.212;16.680;2024-02-14T12:20:44;16.80;;;14.90;;
85829;SDS011;76277;49.212;16.680;2024-02-14T12:23:28;10.50;;;9.30;;
85829;SDS011;76277;49.212;16.680;2024-02-14T12:26:13;10.50;;;9.30;;
85829;SDS011;76277;49.212;16.680;2024-02-14T12:29:01;10.50;;;9.30;;
85829;SDS011;76277;49.212;16.680;2024-02-14T12:31:43;10.50;;;9.30;;
85829;SDS011;76277;49.212;16.680;2024-02-14T12:34:27;10.50;;;9.30;;
85829;SDS011;76277;49.212;16.680;2024-02-14T12:37:12;17.00;;;15.10;;
85829;SDS011;76277;49.212;16.680;2024-02-14T12:39:57;17.00;;;15.10;;
85829;SDS011;76277;49.212;16.680;2024-02-14T12:42:41;17.00;;;15.10;;
85829;SDS011;76277;49.212;16.680;2024-02-14T12:45:28;17.00;;;15.10;;
85829;SDS011;76277;49.212;16.680;2024-02-14T12:48:12;17.00;;;15.10;;
85829;SDS011;76277;49.212;16.680;2024-02-14T12:50:57;17.00;;;15.10;;
85829;SDS011;76277;49.212;16.680;2024-02-14T12:53:40;16.30;;;14.50;;
85829;SDS011;76277;49.212;16.680;2024-02-14T12:56:24;16.30;;;14.50;;
85829;SDS011;76277;49.212;16.680;2024-02-14T12:59:16;16.30;;;14.50;;
85829;SDS011;76277;49.212;16.680;2024-02-14T13:01:54;16.30;;;14.50;;
85829;SDS011;76277;49.212;16.680;2024-02-14T13:04:38;16.30;;;14.50;;
85829;SDS011;76277;49.212;16.680;2024-02-14T13:07:24;12.70;;;11.30;;
85829;SDS011;76277;49.212;16.680;2024-02-14T13:10:08;12.70;;;11.30;;
85829;SDS011;76277;49.212;16.680;2024-02-14T13:12:52;12.70;;;11.30;;
85829;SDS011;76277;49.212;16.680;2024-02-14T13:15:37;12.70;;;11.30;;
85829;SDS011;76277;49.212;16.680;2024-02-14T13:18:22;12.70;;;11.30;;
85829;SDS011;76277;49.212;16.680;2024-02-14T13:21:06;12.70;;;11.30;;
85829;SDS011;76277;49.212;16.680;2024-02-14T13:23:51;17.90;;;15.90;;
85829;SDS011;76277;49.212;16.680;2024-02-14T13:26:36;17.90;;;15.90;;
85829;SDS011;76277;49.212;16.680;2024-02-14T13:29:21;17.90;;;15.90;;
85829;SDS011;76277;49.212;16.680;2024-02-14T13:32:05;17.90;;;15.90;;
85829;SDS011;76277;49.212;16.680;2024-02-14T13:34:50;17.90;;;15.90;;
85829;SDS011;76277;49.212;16.680;2024-02-14T13:37:34;18.20;;;16.10;;
85829;SDS011;76277;49.212;16.680;2024-02-14T13:40:19;18.20;;;16.10;;
85829;SDS011;76277;49.212;16.680;2024-02-14T13:43:04;18.20;;;16.10;;
85829;SDS011;76277;49.212;16.680;2024-02-14T13:45:48;18.20;;;16.10;;
85829;SDS011;76277;49.212;16.680;2024-02-14T13:48:33;18.20;;;16.10;;
85829;SDS011;76277;49.212;16.680;2024-02-14T13:51:18;18.20;;;16.10;;
85829;SDS011;76277;49.212;16.680;2024-02-14T13:54:03;20.30;;;18.10;;
85829;SDS011;76277;49.212;16.680;2024-02-14T13:56:47;20.30;;;18.10;;
85829;SDS011;76277;49.212;16.680;2024-02-14T13:59:32;20.30;;;18.10;;
85829;SDS011;76277;49.212;16.680;2024-02-14T14:02:16;20.30;;;18.10;;
85829;SDS011;76277;49.212;16.680;2024-02-14T14:05:01;20.30;;;18.10;;
85829;SDS011;76277;49.212;16.680;2024-02-14T14:07:46;18.10;;;16.00;;
85829;SDS011;76277;49.212;16.680;2024-02-14T14:10:31;18.10;;;16.00;;
85829;SDS011;76277;49.212;16.680;2024-02-14T14:13:15;18.10;;;16.00;;
85829;SDS011;76277;49.212;16.680;2024-02-14T14:16:00;18.10;;;16.00;;
85829;SDS011;76277;49.212;16.680;2024-02-14T14:18:45;18.10;;;16.00;;
85829;SDS011;76277;49.212;16.680;2024-02-14T14:21:29;18.10;;;16.00;;
85829;SDS011;76277;49.212;16.680;2024-02-14T14:24:14;20.70;;;18.40;;
85829;SDS011;76277;49.212;16.680;2024-02-14T14:26:58;20.70;;;18.40;;
85829;SDS011;76277;49.212;16.680;2024-02-14T14:29:43;20.70;;;18.40;;
85829;SDS011;76277;49.212;16.680;2024-02-14T14:32:28;20.70;;;18.40;;
85829;SDS011;76277;49.212;16.680;2024-02-14T14:35:12;20.70;;;18.40;;
85829;SDS011;76277;49.212;16.680;2024-02-14T14:37:57;18.70;;;16.70;;
85829;SDS011;76277;49.212;16.680;2024-02-14T14:40:41;18.70;;;16.70;;
85829;SDS011;76277;49.212;16.680;2024-02-14T14:43:26;18.70;;;16.70;;
85829;SDS011;76277;49.212;16.680;2024-02-14T14:46:11;18.70;;;16.70;;
85829;SDS011;76277;49.212;16.680;2024-02-14T14:48:56;18.70;;;16.70;;
85829;SDS011;76277;49.212;16.680;2024-02-14T14:51:40;18.70;;;16.70;;
85829;SDS011;76277;49.212;16.680;2024-02-14T14:54:25;19.50;;;17.40;;
85829;SDS011;76277;49.212;16.680;2024-02-14T14:57:10;19.50;;;17.40;;
85829;SDS011;76277;49.212;16.680;2024-02-14T14:59:54;19.50;;;17.40;;
85829;SDS011;76277;49.212;16.680;2024-02-14T15:02:39;19.50;;;17.40;;
85829;SDS011;76277;49.212;16.680;2024-02-14T15:05:24;19.50;;;17.40;;
85829;SDS011;76277;49.212;16.680;2024-02-14T15:08:08;22.20;;;19.70;;
85829;SDS011;76277;49.212;16.680;2024-02-14T15:10:53;22.20;;;19.70;;
85829;SDS011;76277;49.212;16.680;2024-02-14T15:13:38;22.20;;;19.70;;
85829;SDS011;76277;49.212;16.680;2024-02-14T15:16:22;22.20;;;19.70;;
85829;SDS011;76277;49.212;16.680;2024-02-14T15:19:07;22.20;;;19.70;;
85829;SDS011;76277;49.212;16.680;2024-02-14T15:21:52;21.20;;;18.90;;
85829;SDS011;76277;49.212;16.680;2024-02-14T15:24:36;21.20;;;18.90;;
85829;SDS011;76277;49.212;16.680;2024-02-14T15:27:21;21.20;;;18.90;;
85829;SDS011;76277;49.212;16.680;2024-02-14T15:30:06;21.20;;;18.90;;
85829;SDS011;76277;49.212;16.680;2024-02-14T15:32:50;21.20;;;18.90;;
85829;SDS011;76277;49.212;16.680;2024-02-14T15:35:35;21.20;;;18.90;;
85829;SDS011;76277;49.212;16.680;2024-02-14T15:38:20;19.70;;;17.50;;
85829;SDS011;76277;49.212;16.680;2024-02-14T15:41:04;19.70;;;17.50;;
85829;SDS011;76277;49.212;16.680;2024-02-14T15:43:49;19.70;;;17.50;;
85829;SDS011;76277;49.212;16.680;2024-02-14T15:46:33;19.70;;;17.50;;
85829;SDS011;76277;49.212;16.680;2024-02-14T15:49:18;19.70;;;17.50;;
85829;SDS011;76277;49.212;16.680;2024-02-14T15:52:03;23.30;;;20.70;;
85829;SDS011;76277;49.212;16.680;2024-02-14T15:54:49;23.30;;;20.70;;
85829;SDS011;76277;49.212;16.680;2024-02-14T15:57:32;23.30;;;20.70;;